sensor_id;sensor_type;location;lat;lon;timestamp;temperature;humidity
9033;DHT22;4551;53.164;8.210;2023-06-22T00:01:25;20.10;99.90
9033;DHT22;4551;53.164;8.210;2023-06-22T00:03:54;20.00;99.90
9033;DHT22;4551;53.164;8.210;2023-06-22T00:06:23;20.00;99.90
9033;DHT22;4551;53.164;8.210;2023-06-22T00:08:51;20.00;99.90
9033;DHT22;4551;53.164;8.210;2023-06-22T00:11:19;20.00;99.90
9033;DHT22;4551;53.164;8.210;2023-06-22T00:13:47;19.90;99.90
9033;DHT22;4551;53.164;8.210;2023-06-22T00:16:17;19.90;99.90
9033;DHT22;4551;53.164;8.210;2023-06-22T00:18:45;19.90;99.90
9033;DHT22;4551;53.164;8.210;2023-06-22T00:21:14;19.90;99.90
9033;DHT22;4551;53.164;8.210;2023-06-22T00:23:46;19.90;99.90
9033;DHT22;4551;53.164;8.210;2023-06-22T00:26:14;19.90;99.90
9033;DHT22;4551;53.164;8.210;2023-06-22T00:28:43;19.90;99.90
9033;DHT22;4551;53.164;8.210;2023-06-22T00:31:11;19.90;99.90
9033;DHT22;4551;53.164;8.210;2023-06-22T00:33:40;19.90;99.90
9033;DHT22;4551;53.164;8.210;2023-06-22T00:36:08;19.90;99.90
9033;DHT22;4551;53.164;8.210;2023-06-22T00:38:39;19.90;99.90
9033;DHT22;4551;53.164;8.210;2023-06-22T00:41:09;19.80;99.90
9033;DHT22;4551;53.164;8.210;2023-06-22T00:43:37;19.80;99.90
9033;DHT22;4551;53.164;8.210;2023-06-22T00:46:05;19.80;99.90
9033;DHT22;4551;53.164;8.210;2023-06-22T00:48:33;19.80;99.90
9033;DHT22;4551;53.164;8.210;2023-06-22T00:51:03;19.80;99.90
9033;DHT22;4551;53.164;8.210;2023-06-22T00:53:31;19.80;99.90
9033;DHT22;4551;53.164;8.210;2023-06-22T00:56:02;19.70;99.90
9033;DHT22;4551;53.164;8.210;2023-06-22T00:58:32;19.70;99.90
9033;DHT22;4551;53.164;8.210;2023-06-22T01:01:02;19.70;99.90
9033;DHT22;4551;53.164;8.210;2023-06-22T01:03:30;19.70;99.90
9033;DHT22;4551;53.164;8.210;2023-06-22T01:06:08;19.70;99.90
9033;DHT22;4551;53.164;8.210;2023-06-22T01:08:40;19.60;99.90
9033;DHT22;4551;53.164;8.210;2023-06-22T01:11:10;19.60;99.90
9033;DHT22;4551;53.164;8.210;2023-06-22T01:13:44;19.60;99.90
9033;DHT22;4551;53.164;8.210;2023-06-22T01:16:14;19.70;99.90
9033;DHT22;4551;53.164;8.210;2023-06-22T01:18:44;19.60;99.90
9033;DHT22;4551;53.164;8.210;2023-06-22T01:21:14;19.60;99.90
9033;DHT22;4551;53.164;8.210;2023-06-22T01:23:50;19.60;99.90
9033;DHT22;4551;53.164;8.210;2023-06-22T01:26:21;19.60;99.90
9033;DHT22;4551;53.164;8.210;2023-06-22T01:28:52;19.60;99.90
9033;DHT22;4551;53.164;8.210;2023-06-22T01:31:21;19.50;99.90
9033;DHT22;4551;53.164;8.210;2023-06-22T01:33:51;19.50;99.90
9033;DHT22;4551;53.164;8.210;2023-06-22T01:36:20;19.50;99.90
9033;DHT22;4551;53.164;8.210;2023-06-22T01:38:49;19.40;99.90
9033;DHT22;4551;53.164;8.210;2023-06-22T01:41:17;19.40;99.90
9033;DHT22;4551;53.164;8.210;2023-06-22T01:43:45;19.40;99.90
9033;DHT22;4551;53.164;8.210;2023-06-22T01:46:15;19.40;99.90
9033;DHT22;4551;53.164;8.210;2023-06-22T01:48:46;19.40;99.90
9033;DHT22;4551;53.164;8.210;2023-06-22T01:51:14;19.40;99.90
9033;DHT22;4551;53.164;8.210;2023-06-22T01:53:42;19.30;99.90
9033;DHT22;4551;53.164;8.210;2023-06-22T01:56:10;19.30;99.90
9033;DHT22;4551;53.164;8.210;2023-06-22T01:58:40;19.30;99.90
9033;DHT22;4551;53.164;8.210;2023-06-22T02:01:12;19.30;99.90
9033;DHT22;4551;53.164;8.210;2023-06-22T02:03:43;19.20;99.90
9033;DHT22;4551;53.164;8.210;2023-06-22T02:06:14;19.20;99.90
9033;DHT22;4551;53.164;8.210;2023-06-22T02:08:45;19.20;99.90
9033;DHT22;4551;53.164;8.210;2023-06-22T02:11:15;19.20;99.90
9033;DHT22;4551;53.164;8.210;2023-06-22T02:13:44;19.10;99.90
9033;DHT22;4551;53.164;8.210;2023-06-22T02:16:13;19.10;99.90
9033;DHT22;4551;53.164;8.210;2023-06-22T02:18:46;19.10;99.90
9033;DHT22;4551;53.164;8.210;2023-06-22T02:21:17;19.10;99.90
9033;DHT22;4551;53.164;8.210;2023-06-22T02:23:46;19.00;99.90
9033;DHT22;4551;53.164;8.210;2023-06-22T02:26:16;19.00;99.90
9033;DHT22;4551;53.164;8.210;2023-06-22T02:28:46;19.00;99.90
9033;DHT22;4551;53.164;8.210;2023-06-22T02:31:14;19.00;99.90
9033;DHT22;4551;53.164;8.210;2023-06-22T02:33:42;18.90;99.90
9033;DHT22;4551;53.164;8.210;2023-06-22T02:36:14;18.90;99.90
9033;DHT22;4551;53.164;8.210;2023-06-22T02:38:43;18.90;99.90
9033;DHT22;4551;53.164;8.210;2023-06-22T02:41:14;18.80;99.90
9033;DHT22;4551;53.164;8.210;2023-06-22T02:43:44;18.80;99.90
9033;DHT22;4551;53.164;8.210;2023-06-22T02:46:13;18.80;99.90
9033;DHT22;4551;53.164;8.210;2023-06-22T02:48:41;18.80;99.90
9033;DHT22;4551;53.164;8.210;2023-06-22T02:51:14;18.70;99.90
9033;DHT22;4551;53.164;8.210;2023-06-22T02:53:42;18.70;99.90
9033;DHT22;4551;53.164;8.210;2023-06-22T02:56:12;18.70;99.90
9033;DHT22;4551;53.164;8.210;2023-06-22T02:58:40;18.60;99.90
9033;DHT22;4551;53.164;8.210;2023-06-22T03:01:09;18.70;99.90
9033;DHT22;4551;53.164;8.210;2023-06-22T03:03:39;18.60;99.90
9033;DHT22;4551;53.164;8.210;2023-06-22T03:06:08;18.60;99.90
9033;DHT22;4551;53.164;8.210;2023-06-22T03:08:42;18.60;99.90
9033;DHT22;4551;53.164;8.210;2023-06-22T03:11:10;18.50;99.90
9033;DHT22;4551;53.164;8.210;2023-06-22T03:13:38;18.50;99.90
9033;DHT22;4551;53.164;8.210;2023-06-22T03:16:06;17.70;99.90
9033;DHT22;4551;53.164;8.210;2023-06-22T03:18:34;18.50;99.90
9033;DHT22;4551;53.164;8.210;2023-06-22T03:21:02;18.50;99.90
9033;DHT22;4551;53.164;8.210;2023-06-22T03:23:30;18.50;99.90
9033;DHT22;4551;53.164;8.210;2023-06-22T03:26:00;18.40;99.90
9033;DHT22;4551;53.164;8.210;2023-06-22T03:28:28;18.40;99.90
9033;DHT22;4551;53.164;8.210;2023-06-22T03:30:57;18.40;99.90
9033;DHT22;4551;53.164;8.210;2023-06-22T03:33:25;18.40;99.90
9033;DHT22;4551;53.164;8.210;2023-06-22T03:35:53;18.40;99.90
9033;DHT22;4551;53.164;8.210;2023-06-22T03:38:21;18.40;99.90
9033;DHT22;4551;53.164;8.210;2023-06-22T03:40:49;18.40;99.90
9033;DHT22;4551;53.164;8.210;2023-06-22T03:43:18;18.40;99.90
9033;DHT22;4551;53.164;8.210;2023-06-22T03:45:46;18.40;99.90
9033;DHT22;4551;53.164;8.210;2023-06-22T03:48:15;18.30;99.90
9033;DHT22;4551;53.164;8.210;2023-06-22T03:50:43;18.30;99.90
9033;DHT22;4551;53.164;8.210;2023-06-22T03:53:11;18.30;99.90
9033;DHT22;4551;53.164;8.210;2023-06-22T03:55:42;18.30;99.90
9033;DHT22;4551;53.164;8.210;2023-06-22T03:58:15;18.30;99.90
9033;DHT22;4551;53.164;8.210;2023-06-22T04:00:44;18.30;99.90
9033;DHT22;4551;53.164;8.210;2023-06-22T04:03:13;18.30;99.90
9033;DHT22;4551;53.164;8.210;2023-06-22T04:05:41;18.30;99.90
9033;DHT22;4551;53.164;8.210;2023-06-22T04:08:09;18.30;99.90
9033;DHT22;4551;53.164;8.210;2023-06-22T04:10:37;18.30;99.90
9033;DHT22;4551;53.164;8.210;2023-06-22T04:13:06;18.30;99.90
9033;DHT22;4551;53.164;8.210;2023-06-22T04:15:34;18.30;99.90
9033;DHT22;4551;53.164;8.210;2023-06-22T04:18:04;18.30;99.90
9033;DHT22;4551;53.164;8.210;2023-06-22T04:20:32;18.40;99.90
9033;DHT22;4551;53.164;8.210;2023-06-22T04:23:01;18.30;99.90
9033;DHT22;4551;53.164;8.210;2023-06-22T04:25:29;18.40;99.90
9033;DHT22;4551;53.164;8.210;2023-06-22T04:27:57;18.40;99.90
9033;DHT22;4551;53.164;8.210;2023-06-22T04:30:25;18.40;99.90
9033;DHT22;4551;53.164;8.210;2023-06-22T04:32:53;18.40;99.90
9033;DHT22;4551;53.164;8.210;2023-06-22T04:35:26;18.40;99.90
9033;DHT22;4551;53.164;8.210;2023-06-22T04:37:57;18.40;99.90
9033;DHT22;4551;53.164;8.210;2023-06-22T04:40:25;18.40;99.90
9033;DHT22;4551;53.164;8.210;2023-06-22T04:42:54;18.40;99.90
9033;DHT22;4551;53.164;8.210;2023-06-22T04:45:22;18.40;99.90
9033;DHT22;4551;53.164;8.210;2023-06-22T04:47:50;18.40;99.90
9033;DHT22;4551;53.164;8.210;2023-06-22T04:50:18;18.50;99.90
9033;DHT22;4551;53.164;8.210;2023-06-22T04:52:49;18.50;99.90
9033;DHT22;4551;53.164;8.210;2023-06-22T04:55:17;18.50;99.90
9033;DHT22;4551;53.164;8.210;2023-06-22T04:57:46;18.50;99.90
9033;DHT22;4551;53.164;8.210;2023-06-22T05:00:16;18.50;99.90
9033;DHT22;4551;53.164;8.210;2023-06-22T05:02:45;18.60;99.90
9033;DHT22;4551;53.164;8.210;2023-06-22T05:05:14;18.60;99.90
9033;DHT22;4551;53.164;8.210;2023-06-22T05:07:43;18.60;99.90
9033;DHT22;4551;53.164;8.210;2023-06-22T05:10:12;18.60;99.90
9033;DHT22;4551;53.164;8.210;2023-06-22T05:12:40;18.60;99.90
9033;DHT22;4551;53.164;8.210;2023-06-22T05:15:09;18.70;99.90
9033;DHT22;4551;53.164;8.210;2023-06-22T05:17:37;18.70;99.90
9033;DHT22;4551;53.164;8.210;2023-06-22T05:20:10;18.70;99.90
9033;DHT22;4551;53.164;8.210;2023-06-22T05:22:38;18.70;99.90
9033;DHT22;4551;53.164;8.210;2023-06-22T05:25:08;18.80;99.90
9033;DHT22;4551;53.164;8.210;2023-06-22T05:27:38;18.80;99.90
9033;DHT22;4551;53.164;8.210;2023-06-22T05:30:07;18.80;99.90
9033;DHT22;4551;53.164;8.210;2023-06-22T05:32:35;18.80;99.90
9033;DHT22;4551;53.164;8.210;2023-06-22T05:35:04;18.80;99.90
9033;DHT22;4551;53.164;8.210;2023-06-22T05:37:32;18.90;99.90
9033;DHT22;4551;53.164;8.210;2023-06-22T05:40:00;18.90;99.90
9033;DHT22;4551;53.164;8.210;2023-06-22T05:42:31;18.90;99.90
9033;DHT22;4551;53.164;8.210;2023-06-22T05:45:01;18.90;99.90
9033;DHT22;4551;53.164;8.210;2023-06-22T05:47:29;19.00;99.90
9033;DHT22;4551;53.164;8.210;2023-06-22T05:49:57;19.00;99.90
9033;DHT22;4551;53.164;8.210;2023-06-22T05:52:25;19.10;99.90
9033;DHT22;4551;53.164;8.210;2023-06-22T05:54:53;19.10;99.90
9033;DHT22;4551;53.164;8.210;2023-06-22T05:57:21;19.20;99.90
9033;DHT22;4551;53.164;8.210;2023-06-22T05:59:49;19.20;99.90
9033;DHT22;4551;53.164;8.210;2023-06-22T06:02:19;19.30;99.90
9033;DHT22;4551;53.164;8.210;2023-06-22T06:04:48;19.30;99.90
9033;DHT22;4551;53.164;8.210;2023-06-22T06:07:17;19.40;99.90
9033;DHT22;4551;53.164;8.210;2023-06-22T06:09:45;19.40;99.90
9033;DHT22;4551;53.164;8.210;2023-06-22T06:12:14;19.40;99.90
9033;DHT22;4551;53.164;8.210;2023-06-22T06:14:42;19.50;99.90
9033;DHT22;4551;53.164;8.210;2023-06-22T06:17:10;19.50;99.90
9033;DHT22;4551;53.164;8.210;2023-06-22T06:19:40;19.50;99.90
9033;DHT22;4551;53.164;8.210;2023-06-22T06:22:08;19.60;99.90
9033;DHT22;4551;53.164;8.210;2023-06-22T06:24:36;19.60;99.90
9033;DHT22;4551;53.164;8.210;2023-06-22T06:27:04;19.70;99.90
9033;DHT22;4551;53.164;8.210;2023-06-22T06:29:32;19.70;99.90
9033;DHT22;4551;53.164;8.210;2023-06-22T06:32:00;19.80;99.90
9033;DHT22;4551;53.164;8.210;2023-06-22T06:34:28;19.80;99.90
9033;DHT22;4551;53.164;8.210;2023-06-22T06:36:58;19.80;99.90
9033;DHT22;4551;53.164;8.210;2023-06-22T06:39:26;19.90;99.90
9033;DHT22;4551;53.164;8.210;2023-06-22T06:41:54;20.00;99.90
9033;DHT22;4551;53.164;8.210;2023-06-22T06:44:22;20.00;99.90
9033;DHT22;4551;53.164;8.210;2023-06-22T06:46:50;20.00;99.90
9033;DHT22;4551;53.164;8.210;2023-06-22T06:49:18;20.10;99.90
9033;DHT22;4551;53.164;8.210;2023-06-22T06:51:46;20.10;99.90
9033;DHT22;4551;53.164;8.210;2023-06-22T06:54:15;20.20;99.90
9033;DHT22;4551;53.164;8.210;2023-06-22T06:56:47;20.20;99.90
9033;DHT22;4551;53.164;8.210;2023-06-22T06:59:16;20.30;99.90
9033;DHT22;4551;53.164;8.210;2023-06-22T07:01:47;20.30;99.90
9033;DHT22;4551;53.164;8.210;2023-06-22T07:04:15;20.40;99.90
9033;DHT22;4551;53.164;8.210;2023-06-22T07:06:43;20.40;99.90
9033;DHT22;4551;53.164;8.210;2023-06-22T07:09:11;20.50;99.90
9033;DHT22;4551;53.164;8.210;2023-06-22T07:11:41;20.50;99.90
9033;DHT22;4551;53.164;8.210;2023-06-22T07:14:09;20.60;99.90
9033;DHT22;4551;53.164;8.210;2023-06-22T07:16:37;20.60;99.90
9033;DHT22;4551;53.164;8.210;2023-06-22T07:19:05;20.70;99.90
9033;DHT22;4551;53.164;8.210;2023-06-22T07:21:36;20.70;99.90
9033;DHT22;4551;53.164;8.210;2023-06-22T07:24:04;20.80;99.90
9033;DHT22;4551;53.164;8.210;2023-06-22T07:26:33;20.60;99.90
9033;DHT22;4551;53.164;8.210;2023-06-22T07:29:02;20.90;99.90
9033;DHT22;4551;53.164;8.210;2023-06-22T07:31:31;21.00;99.90
9033;DHT22;4551;53.164;8.210;2023-06-22T07:33:59;21.00;99.90
9033;DHT22;4551;53.164;8.210;2023-06-22T07:36:27;21.10;99.90
9033;DHT22;4551;53.164;8.210;2023-06-22T07:38:56;21.10;99.90
9033;DHT22;4551;53.164;8.210;2023-06-22T07:41:24;21.20;99.90
9033;DHT22;4551;53.164;8.210;2023-06-22T07:43:53;21.20;99.90
9033;DHT22;4551;53.164;8.210;2023-06-22T07:46:22;21.20;99.90
9033;DHT22;4551;53.164;8.210;2023-06-22T07:48:50;21.30;99.90
9033;DHT22;4551;53.164;8.210;2023-06-22T07:51:22;21.30;99.90
9033;DHT22;4551;53.164;8.210;2023-06-22T07:53:50;21.40;99.90
9033;DHT22;4551;53.164;8.210;2023-06-22T07:56:18;21.40;99.90
9033;DHT22;4551;53.164;8.210;2023-06-22T07:58:47;21.50;99.90
9033;DHT22;4551;53.164;8.210;2023-06-22T08:01:15;21.50;99.90
9033;DHT22;4551;53.164;8.210;2023-06-22T08:03:45;21.60;99.90
9033;DHT22;4551;53.164;8.210;2023-06-22T08:06:13;21.70;99.90
9033;DHT22;4551;53.164;8.210;2023-06-22T08:08:41;21.70;99.90
9033;DHT22;4551;53.164;8.210;2023-06-22T08:11:10;21.80;99.90
9033;DHT22;4551;53.164;8.210;2023-06-22T08:13:38;21.90;99.90
9033;DHT22;4551;53.164;8.210;2023-06-22T08:16:06;21.90;99.90
9033;DHT22;4551;53.164;8.210;2023-06-22T08:18:34;22.00;99.90
9033;DHT22;4551;53.164;8.210;2023-06-22T08:21:04;22.00;99.90
9033;DHT22;4551;53.164;8.210;2023-06-22T08:23:32;22.10;99.90
9033;DHT22;4551;53.164;8.210;2023-06-22T08:26:00;22.10;99.90
9033;DHT22;4551;53.164;8.210;2023-06-22T08:28:28;22.20;99.90
9033;DHT22;4551;53.164;8.210;2023-06-22T08:30:56;22.20;99.90
9033;DHT22;4551;53.164;8.210;2023-06-22T08:33:24;22.20;99.90
9033;DHT22;4551;53.164;8.210;2023-06-22T08:35:55;22.30;99.90
9033;DHT22;4551;53.164;8.210;2023-06-22T08:38:24;22.30;99.90
9033;DHT22;4551;53.164;8.210;2023-06-22T08:40:52;22.30;99.90
9033;DHT22;4551;53.164;8.210;2023-06-22T08:43:20;22.40;99.90
9033;DHT22;4551;53.164;8.210;2023-06-22T08:45:48;22.40;99.90
9033;DHT22;4551;53.164;8.210;2023-06-22T08:48:17;22.50;99.90
9033;DHT22;4551;53.164;8.210;2023-06-22T08:50:45;22.60;99.90
9033;DHT22;4551;53.164;8.210;2023-06-22T08:53:13;22.60;99.90
9033;DHT22;4551;53.164;8.210;2023-06-22T08:55:42;22.60;99.90
9033;DHT22;4551;53.164;8.210;2023-06-22T08:58:10;22.70;99.90
9033;DHT22;4551;53.164;8.210;2023-06-22T09:00:38;22.80;99.90
9033;DHT22;4551;53.164;8.210;2023-06-22T09:03:06;22.80;99.90
9033;DHT22;4551;53.164;8.210;2023-06-22T09:05:37;22.90;99.90
9033;DHT22;4551;53.164;8.210;2023-06-22T09:08:05;22.90;99.90
9033;DHT22;4551;53.164;8.210;2023-06-22T09:10:33;23.00;99.90
9033;DHT22;4551;53.164;8.210;2023-06-22T09:13:02;23.10;99.90
9033;DHT22;4551;53.164;8.210;2023-06-22T09:15:30;23.10;99.90
9033;DHT22;4551;53.164;8.210;2023-06-22T09:17:59;23.10;99.90
9033;DHT22;4551;53.164;8.210;2023-06-22T09:20:27;23.20;99.90
9033;DHT22;4551;53.164;8.210;2023-06-22T09:22:56;23.30;99.90
9033;DHT22;4551;53.164;8.210;2023-06-22T09:25:24;23.40;99.90
9033;DHT22;4551;53.164;8.210;2023-06-22T09:27:53;23.40;99.90
9033;DHT22;4551;53.164;8.210;2023-06-22T09:30:22;23.50;99.90
9033;DHT22;4551;53.164;8.210;2023-06-22T09:32:51;23.50;99.90
9033;DHT22;4551;53.164;8.210;2023-06-22T09:35:19;23.60;99.90
9033;DHT22;4551;53.164;8.210;2023-06-22T09:37:47;23.70;99.90
9033;DHT22;4551;53.164;8.210;2023-06-22T09:40:15;23.70;99.90
9033;DHT22;4551;53.164;8.210;2023-06-22T09:42:44;23.80;99.90
9033;DHT22;4551;53.164;8.210;2023-06-22T09:45:12;23.80;99.90
9033;DHT22;4551;53.164;8.210;2023-06-22T09:47:41;23.80;99.90
9033;DHT22;4551;53.164;8.210;2023-06-22T09:50:09;23.90;99.90
9033;DHT22;4551;53.164;8.210;2023-06-22T09:52:38;23.90;99.90
9033;DHT22;4551;53.164;8.210;2023-06-22T09:55:14;23.90;99.90
9033;DHT22;4551;53.164;8.210;2023-06-22T09:57:43;24.00;99.90
9033;DHT22;4551;53.164;8.210;2023-06-22T10:00:11;24.00;99.90
9033;DHT22;4551;53.164;8.210;2023-06-22T10:02:42;24.10;99.90
9033;DHT22;4551;53.164;8.210;2023-06-22T10:05:11;24.10;99.90
9033;DHT22;4551;53.164;8.210;2023-06-22T10:07:39;24.10;99.90
9033;DHT22;4551;53.164;8.210;2023-06-22T10:10:11;24.20;99.90
9033;DHT22;4551;53.164;8.210;2023-06-22T10:12:41;24.20;99.90
9033;DHT22;4551;53.164;8.210;2023-06-22T10:15:09;24.30;99.90
9033;DHT22;4551;53.164;8.210;2023-06-22T10:17:38;24.30;99.90
9033;DHT22;4551;53.164;8.210;2023-06-22T10:20:08;24.30;99.90
9033;DHT22;4551;53.164;8.210;2023-06-22T10:22:39;24.40;99.90
9033;DHT22;4551;53.164;8.210;2023-06-22T10:25:07;24.50;99.90
9033;DHT22;4551;53.164;8.210;2023-06-22T10:27:35;24.50;99.90
9033;DHT22;4551;53.164;8.210;2023-06-22T10:30:07;24.50;99.90
9033;DHT22;4551;53.164;8.210;2023-06-22T10:32:35;24.50;99.90
9033;DHT22;4551;53.164;8.210;2023-06-22T10:35:03;24.60;99.90
9033;DHT22;4551;53.164;8.210;2023-06-22T10:37:33;24.70;99.90
9033;DHT22;4551;53.164;8.210;2023-06-22T10:40:01;24.70;99.90
9033;DHT22;4551;53.164;8.210;2023-06-22T10:42:30;24.80;99.90
9033;DHT22;4551;53.164;8.210;2023-06-22T10:44:58;24.80;99.90
9033;DHT22;4551;53.164;8.210;2023-06-22T10:47:26;24.90;99.90
9033;DHT22;4551;53.164;8.210;2023-06-22T10:49:54;24.90;99.90
9033;DHT22;4551;53.164;8.210;2023-06-22T10:52:23;25.10;99.90
9033;DHT22;4551;53.164;8.210;2023-06-22T10:54:52;25.10;99.90
9033;DHT22;4551;53.164;8.210;2023-06-22T10:57:21;25.20;99.90
9033;DHT22;4551;53.164;8.210;2023-06-22T10:59:49;25.30;99.90
9033;DHT22;4551;53.164;8.210;2023-06-22T11:02:17;25.30;99.90
9033;DHT22;4551;53.164;8.210;2023-06-22T11:04:45;25.40;99.90
9033;DHT22;4551;53.164;8.210;2023-06-22T11:07:14;25.50;99.90
9033;DHT22;4551;53.164;8.210;2023-06-22T11:09:42;25.50;99.90
9033;DHT22;4551;53.164;8.210;2023-06-22T11:12:12;25.60;99.90
9033;DHT22;4551;53.164;8.210;2023-06-22T11:14:40;25.70;99.90
9033;DHT22;4551;53.164;8.210;2023-06-22T11:17:08;25.70;99.90
9033;DHT22;4551;53.164;8.210;2023-06-22T11:19:36;25.80;99.90
9033;DHT22;4551;53.164;8.210;2023-06-22T11:22:04;25.90;99.90
9033;DHT22;4551;53.164;8.210;2023-06-22T11:24:41;26.00;99.90
9033;DHT22;4551;53.164;8.210;2023-06-22T11:27:09;26.20;99.90
9033;DHT22;4551;53.164;8.210;2023-06-22T11:29:38;26.20;99.90
9033;DHT22;4551;53.164;8.210;2023-06-22T11:32:07;26.20;99.90
9033;DHT22;4551;53.164;8.210;2023-06-22T11:34:38;26.30;99.90
9033;DHT22;4551;53.164;8.210;2023-06-22T11:37:06;26.40;99.90
9033;DHT22;4551;53.164;8.210;2023-06-22T11:39:34;26.50;99.90
9033;DHT22;4551;53.164;8.210;2023-06-22T11:42:08;26.50;99.90
9033;DHT22;4551;53.164;8.210;2023-06-22T11:44:38;26.60;99.90
9033;DHT22;4551;53.164;8.210;2023-06-22T11:47:06;26.70;99.90
9033;DHT22;4551;53.164;8.210;2023-06-22T11:49:34;26.80;99.90
9033;DHT22;4551;53.164;8.210;2023-06-22T11:52:02;26.90;99.90
9033;DHT22;4551;53.164;8.210;2023-06-22T11:54:30;27.00;99.90
9033;DHT22;4551;53.164;8.210;2023-06-22T11:56:58;27.10;99.90
9033;DHT22;4551;53.164;8.210;2023-06-22T11:59:27;27.20;99.90
9033;DHT22;4551;53.164;8.210;2023-06-22T12:01:56;27.20;99.90
9033;DHT22;4551;53.164;8.210;2023-06-22T12:04:25;27.20;99.90
9033;DHT22;4551;53.164;8.210;2023-06-22T12:06:53;27.20;99.90
9033;DHT22;4551;53.164;8.210;2023-06-22T12:09:21;27.10;99.90
9033;DHT22;4551;53.164;8.210;2023-06-22T12:11:51;27.00;99.90
9033;DHT22;4551;53.164;8.210;2023-06-22T12:14:19;27.00;99.90
9033;DHT22;4551;53.164;8.210;2023-06-22T12:16:48;26.90;99.90
9033;DHT22;4551;53.164;8.210;2023-06-22T12:19:17;26.90;99.90
9033;DHT22;4551;53.164;8.210;2023-06-22T12:21:48;26.80;99.90
9033;DHT22;4551;53.164;8.210;2023-06-22T12:24:16;26.80;99.90
9033;DHT22;4551;53.164;8.210;2023-06-22T12:26:44;26.80;99.90
9033;DHT22;4551;53.164;8.210;2023-06-22T12:29:13;26.80;99.90
9033;DHT22;4551;53.164;8.210;2023-06-22T12:31:43;26.80;99.90
9033;DHT22;4551;53.164;8.210;2023-06-22T12:34:11;26.70;99.90
9033;DHT22;4551;53.164;8.210;2023-06-22T12:36:40;26.70;99.90
9033;DHT22;4551;53.164;8.210;2023-06-22T12:39:09;26.70;99.90
9033;DHT22;4551;53.164;8.210;2023-06-22T12:41:37;26.70;99.90
9033;DHT22;4551;53.164;8.210;2023-06-22T12:44:05;26.70;99.90
9033;DHT22;4551;53.164;8.210;2023-06-22T12:46:33;26.70;99.90
9033;DHT22;4551;53.164;8.210;2023-06-22T12:49:04;26.70;99.90
9033;DHT22;4551;53.164;8.210;2023-06-22T12:51:32;26.60;99.90
9033;DHT22;4551;53.164;8.210;2023-06-22T12:54:02;26.60;99.90
9033;DHT22;4551;53.164;8.210;2023-06-22T12:56:30;26.60;99.90
9033;DHT22;4551;53.164;8.210;2023-06-22T12:58:58;26.60;99.90
9033;DHT22;4551;53.164;8.210;2023-06-22T13:01:28;26.70;99.90
9033;DHT22;4551;53.164;8.210;2023-06-22T13:03:57;26.80;99.90
9033;DHT22;4551;53.164;8.210;2023-06-22T13:06:25;26.80;99.90
9033;DHT22;4551;53.164;8.210;2023-06-22T13:08:53;26.90;99.90
9033;DHT22;4551;53.164;8.210;2023-06-22T13:11:25;26.90;99.90
9033;DHT22;4551;53.164;8.210;2023-06-22T13:13:54;26.90;99.90
9033;DHT22;4551;53.164;8.210;2023-06-22T13:16:37;27.00;99.90
9033;DHT22;4551;53.164;8.210;2023-06-22T13:19:05;27.00;99.90
9033;DHT22;4551;53.164;8.210;2023-06-22T13:28:23;27.00;99.90
9033;DHT22;4551;53.164;8.210;2023-06-22T13:30:54;27.00;99.90
9033;DHT22;4551;53.164;8.210;2023-06-22T13:43:47;26.80;99.90
9033;DHT22;4551;53.164;8.210;2023-06-22T13:46:15;27.00;99.90
9033;DHT22;4551;53.164;8.210;2023-06-22T13:48:43;26.60;99.90
9033;DHT22;4551;53.164;8.210;2023-06-22T13:51:11;26.40;99.90
9033;DHT22;4551;53.164;8.210;2023-06-22T13:53:39;26.30;99.90
9033;DHT22;4551;53.164;8.210;2023-06-22T13:56:07;26.20;99.90
9033;DHT22;4551;53.164;8.210;2023-06-22T13:58:36;26.00;99.90
9033;DHT22;4551;53.164;8.210;2023-06-22T14:01:05;25.90;99.90
9033;DHT22;4551;53.164;8.210;2023-06-22T14:03:37;25.80;99.90
9033;DHT22;4551;53.164;8.210;2023-06-22T14:06:05;25.80;99.90
9033;DHT22;4551;53.164;8.210;2023-06-22T14:08:33;25.80;99.90
9033;DHT22;4551;53.164;8.210;2023-06-22T14:11:21;25.70;99.90
9033;DHT22;4551;53.164;8.210;2023-06-22T14:13:49;25.70;99.90
9033;DHT22;4551;53.164;8.210;2023-06-22T14:16:19;25.60;99.90
9033;DHT22;4551;53.164;8.210;2023-06-22T14:18:47;25.60;99.90
9033;DHT22;4551;53.164;8.210;2023-06-22T14:21:15;25.50;99.90
9033;DHT22;4551;53.164;8.210;2023-06-22T14:23:43;25.40;99.90
9033;DHT22;4551;53.164;8.210;2023-06-22T14:26:16;25.40;99.90
9033;DHT22;4551;53.164;8.210;2023-06-22T14:28:45;25.20;99.90
9033;DHT22;4551;53.164;8.210;2023-06-22T14:31:15;25.20;99.90
9033;DHT22;4551;53.164;8.210;2023-06-22T14:33:45;25.10;99.90
9033;DHT22;4551;53.164;8.210;2023-06-22T14:36:14;24.90;99.90
9033;DHT22;4551;53.164;8.210;2023-06-22T14:38:42;24.80;99.90
9033;DHT22;4551;53.164;8.210;2023-06-22T14:41:10;24.70;99.90
9033;DHT22;4551;53.164;8.210;2023-06-22T14:43:43;24.60;99.90
9033;DHT22;4551;53.164;8.210;2023-06-22T14:46:11;24.50;99.90
9033;DHT22;4551;53.164;8.210;2023-06-22T14:48:39;24.40;99.90
9033;DHT22;4551;53.164;8.210;2023-06-22T14:51:09;24.40;99.90
9033;DHT22;4551;53.164;8.210;2023-06-22T14:53:42;24.40;99.90
9033;DHT22;4551;53.164;8.210;2023-06-22T14:56:11;24.30;99.90
9033;DHT22;4551;53.164;8.210;2023-06-22T14:58:41;24.30;99.90
9033;DHT22;4551;53.164;8.210;2023-06-22T15:01:12;24.30;99.90
9033;DHT22;4551;53.164;8.210;2023-06-22T15:03:40;24.20;99.90
9033;DHT22;4551;53.164;8.210;2023-06-22T15:06:10;24.00;99.90
9033;DHT22;4551;53.164;8.210;2023-06-22T15:08:38;23.90;99.90
9033;DHT22;4551;53.164;8.210;2023-06-22T15:11:06;23.90;99.90
9033;DHT22;4551;53.164;8.210;2023-06-22T15:13:34;23.80;99.90
9033;DHT22;4551;53.164;8.210;2023-06-22T15:16:02;23.80;99.90
9033;DHT22;4551;53.164;8.210;2023-06-22T15:18:31;23.70;99.90
9033;DHT22;4551;53.164;8.210;2023-06-22T15:21:00;23.70;99.90
9033;DHT22;4551;53.164;8.210;2023-06-22T15:23:30;23.60;99.90
9033;DHT22;4551;53.164;8.210;2023-06-22T15:25:58;23.60;99.90
9033;DHT22;4551;53.164;8.210;2023-06-22T15:28:27;23.50;99.90
9033;DHT22;4551;53.164;8.210;2023-06-22T15:30:55;23.50;99.90
9033;DHT22;4551;53.164;8.210;2023-06-22T15:33:24;23.30;99.90
9033;DHT22;4551;53.164;8.210;2023-06-22T15:35:52;23.30;99.90
9033;DHT22;4551;53.164;8.210;2023-06-22T15:38:21;23.30;99.90
9033;DHT22;4551;53.164;8.210;2023-06-22T15:40:50;23.20;99.90
9033;DHT22;4551;53.164;8.210;2023-06-22T15:43:18;23.10;99.90
9033;DHT22;4551;53.164;8.210;2023-06-22T15:45:46;23.10;99.90
9033;DHT22;4551;53.164;8.210;2023-06-22T15:48:16;23.00;99.90
9033;DHT22;4551;53.164;8.210;2023-06-22T15:50:44;23.00;99.90
9033;DHT22;4551;53.164;8.210;2023-06-22T15:53:12;22.90;99.90
9033;DHT22;4551;53.164;8.210;2023-06-22T15:55:40;22.80;99.90
9033;DHT22;4551;53.164;8.210;2023-06-22T15:58:09;22.80;99.90
9033;DHT22;4551;53.164;8.210;2023-06-22T16:00:39;22.80;99.90
9033;DHT22;4551;53.164;8.210;2023-06-22T16:03:07;22.80;99.90
9033;DHT22;4551;53.164;8.210;2023-06-22T16:05:36;22.70;99.90
9033;DHT22;4551;53.164;8.210;2023-06-22T16:08:04;22.70;99.90
9033;DHT22;4551;53.164;8.210;2023-06-22T16:10:38;22.60;99.90
9033;DHT22;4551;53.164;8.210;2023-06-22T16:13:06;22.60;99.90
9033;DHT22;4551;53.164;8.210;2023-06-22T16:15:35;22.60;99.90
9033;DHT22;4551;53.164;8.210;2023-06-22T16:18:03;22.50;99.90
9033;DHT22;4551;53.164;8.210;2023-06-22T16:20:32;22.50;99.90
9033;DHT22;4551;53.164;8.210;2023-06-22T16:23:00;22.40;99.90
9033;DHT22;4551;53.164;8.210;2023-06-22T16:25:28;22.40;99.90
9033;DHT22;4551;53.164;8.210;2023-06-22T16:27:56;22.30;99.90
9033;DHT22;4551;53.164;8.210;2023-06-22T16:30:24;22.30;99.90